Time;durP1;ratioP1;P1;durP2;ratioP2;P2;SDS_P1;SDS_P2;PMS_P1;PMS_P2;Temp;Humidity;BMP_temperature;BMP_pressure;BME280_temperature;BME280_humidity;BME280_pressure;Samples;Min_cycle;Max_cycle;Signal;HPM_P1;HPM_P2
2022/05/02 00:01:43;;;;;;;28.48;19.05;;;;;;;7.60;68.38;102032.88;5072639;28;20033;-58
2022/05/02 00:04:08;;;;;;;28.83;19.13;;;;;;;7.51;68.70;102026.16;5072632;28;20017;-58
2022/05/02 00:06:33;;;;;;;29.02;18.38;;;;;;;7.50;69.21;102027.22;5072532;28;20027;-58
2022/05/02 00:08:58;;;;;;;28.40;18.67;;;;;;;7.46;68.53;102026.91;5072757;28;20036;-58
2022/05/02 00:11:24;;;;;;;29.55;18.88;;;;;;;7.39;69.03;102029.03;5072601;28;20426;-58
2022/05/02 00:13:49;;;;;;;29.83;18.88;;;;;;;7.40;68.54;102027.09;5072514;28;20032;-58
2022/05/02 00:16:14;;;;;;;30.27;19.95;;;;;;;7.39;68.39;102022.69;5072499;28;20540;-58
2022/05/02 00:18:39;;;;;;;37.03;20.40;;;;;;;7.32;68.72;102023.72;5072584;28;20024;-58
2022/05/02 00:21:05;;;;;;;27.95;18.42;;;;;;;7.31;68.22;102021.22;5072488;28;20024;-58
2022/05/02 00:23:30;;;;;;;30.40;19.73;;;;;;;7.26;68.82;102021.97;5070971;28;20024;-58
2022/05/02 00:25:55;;;;;;;28.58;19.42;;;;;;;7.21;69.17;102016.41;5071090;28;20036;-58
2022/05/02 00:28:20;;;;;;;33.03;19.42;;;;;;;7.17;69.48;102021.59;5072496;28;20501;-57
2022/05/02 00:30:46;;;;;;;30.52;19.50;;;;;;;7.08;69.51;102008.53;5072166;28;20119;-58
2022/05/02 00:33:11;;;;;;;29.50;19.30;;;;;;;7.08;69.90;102016.78;5071102;28;20024;-58
2022/05/02 00:35:37;;;;;;;30.08;19.35;;;;;;;7.05;70.41;102014.53;5072229;28;20028;-58
2022/05/02 00:38:02;;;;;;;30.08;20.00;;;;;;;7.00;70.21;102018.03;5072392;28;20085;-58
2022/05/02 00:40:28;;;;;;;30.95;19.27;;;;;;;6.94;70.96;102017.13;5072194;28;20032;-58
2022/05/02 00:42:53;;;;;;;29.73;19.10;;;;;;;6.91;71.07;102008.56;5072227;28;20047;-58
2022/05/02 00:45:20;;;;;;;29.02;19.83;;;;;;;6.80;71.36;102000.16;5072172;28;20036;-58
2022/05/02 00:47:50;;;;;;;28.75;19.38;;;;;;;6.85;70.92;102008.47;5072341;28;20055;-58
2022/05/02 00:50:15;;;;;;;30.73;20.13;;;;;;;6.81;70.81;102015.56;5070705;28;20032;-59
2022/05/02 00:52:41;;;;;;;29.65;19.23;;;;;;;6.81;70.69;102001.81;5072257;28;20028;-59
2022/05/02 00:55:08;;;;;;;30.35;19.45;;;;;;;6.79;70.64;102001.22;5072065;28;20445;-59
2022/05/02 00:57:33;;;;;;;28.70;19.52;;;;;;;6.72;71.24;102003.31;5072136;28;20094;-59
2022/05/02 00:59:58;;;;;;;30.08;20.02;;;;;;;6.72;71.32;101997.81;5072145;28;20573;-59
2022/05/02 01:02:24;;;;;;;29.17;18.65;;;;;;;6.67;71.37;102001.34;5072582;28;20032;-60
2022/05/02 01:04:49;;;;;;;28.85;18.60;;;;;;;6.65;72.00;101997.19;5072198;28;20029;-59
2022/05/02 01:07:20;;;;;;;29.58;19.45;;;;;;;6.58;72.71;102002.00;5072066;28;20025;-59
2022/05/02 01:09:47;;;;;;;31.27;19.35;;;;;;;6.53;72.55;102000.00;5074034;28;20024;-59
2022/05/02 01:12:16;;;;;;;29.10;18.77;;;;;;;6.50;72.69;101986.75;5075570;28;20024;-58
2022/05/02 01:14:43;;;;;;;29.70;19.92;;;;;;;6.50;72.69;101997.75;5075784;28;20092;-59
2022/05/02 01:17:09;;;;;;;29.55;19.33;;;;;;;6.46;73.04;101991.94;5075723;28;20048;-59
2022/05/02 01:19:34;;;;;;;29.13;19.67;;;;;;;6.46;73.44;101994.69;5075321;28;20464;-59
2022/05/02 01:22:00;;;;;;;30.52;19.17;;;;;;;6.45;73.37;102000.41;5075430;28;20028;-59
2022/05/02 01:24:41;;;;;;;30.00;19.38;;;;;;;6.35;73.62;101996.41;5075434;28;20364;-59
2022/05/02 01:27:08;;;;;;;27.88;19.23;;;;;;;6.29;73.21;101980.94;5075519;28;20028;-58
2022/05/02 01:29:35;;;;;;;31.55;20.75;;;;;;;6.38;73.24;101992.31;5075444;28;20087;-59
2022/05/02 01:32:06;;;;;;;29.15;18.73;;;;;;;6.38;73.44;101997.81;5075463;28;20043;-59
2022/05/02 01:34:31;;;;;;;31.17;19.63;;;;;;;6.35;73.84;101996.41;5075360;28;20071;-59
2022/05/02 01:36:57;;;;;;;31.83;20.10;;;;;;;6.29;73.30;101994.66;5075218;28;20017;-59
2022/05/02 01:39:22;;;;;;;29.75;19.25;;;;;;;6.30;73.50;101990.84;5075055;28;20104;-58
2022/05/02 01:41:49;;;;;;;30.50;20.75;;;;;;;6.27;73.37;101991.31;5075098;28;20485;-59
2022/05/02 01:44:14;;;;;;;30.98;21.08;;;;;;;6.24;73.33;101995.41;5075208;28;20043;-59
2022/05/02 01:46:39;;;;;;;31.27;20.15;;;;;;;6.18;73.96;101984.56;5075038;28;20481;-59
2022/05/02 01:49:05;;;;;;;32.78;20.50;;;;;;;6.11;74.58;101992.16;5075001;28;20024;-59
2022/05/02 01:51:30;;;;;;;31.50;20.02;;;;;;;6.06;74.61;101990.16;5074992;28;20235;-59
2022/05/02 01:53:55;;;;;;;29.67;19.98;;;;;;;5.97;74.83;101983.38;5074774;28;20027;-59
2022/05/02 01:56:20;;;;;;;29.77;19.58;;;;;;;5.98;74.37;101980.34;5074967;28;20052;-59
2022/05/02 01:58:46;;;;;;;31.48;19.63;;;;;;;5.96;74.53;101987.19;5074736;28;20025;-59
2022/05/02 02:01:11;;;;;;;30.63;20.77;;;;;;;5.92;74.75;101987.66;5074729;28;20036;-59
2022/05/02 02:03:36;;;;;;;31.15;20.17;;;;;;;5.90;74.48;101978.00;5074753;28;20387;-58
2022/05/02 02:06:02;;;;;;;31.00;20.23;;;;;;;5.87;74.75;101981.25;5074670;28;20111;-59
2022/05/02 02:08:32;;;;;;;29.40;20.25;;;;;;;5.82;75.27;101978.41;5074728;28;20036;-59
2022/05/02 02:11:01;;;;;;;31.42;21.08;;;;;;;5.85;75.42;101978.75;5074820;28;20340;-59
2022/05/02 02:13:26;;;;;;;31.95;20.55;;;;;;;5.82;75.02;101976.50;5074707;28;20054;-59
2022/05/02 02:15:52;;;;;;;32.10;21.30;;;;;;;5.79;75.05;101977.00;5074521;28;20459;-59
2022/05/02 02:18:17;;;;;;;31.83;20.48;;;;;;;5.77;75.75;101984.66;5074361;28;20104;-59
2022/05/02 02:20:44;;;;;;;32.70;20.67;;;;;;;5.69;76.16;101980.38;5074006;28;20024;-59
2022/05/02 02:23:12;;;;;;;32.40;20.80;;;;;;;5.64;76.02;101977.53;5074268;28;20025;-58
2022/05/02 02:25:37;;;;;;;31.50;20.25;;;;;;;5.60;75.97;101977.19;5074270;28;20036;-58
2022/05/02 02:28:04;;;;;;;31.70;20.45;;;;;;;5.59;76.46;101985.66;5074352;28;20020;-59
2022/05/02 02:30:29;;;;;;;31.92;20.60;;;;;;;5.52;76.40;101983.09;5074263;28;20024;-59
2022/05/02 02:32:56;;;;;;;32.85;19.88;;;;;;;5.49;76.05;101980.81;5074312;28;20361;-59
2022/05/02 02:35:22;;;;;;;31.08;20.17;;;;;;;5.41;76.10;101982.03;5074252;28;20025;-58
2022/05/02 02:37:48;;;;;;;30.40;20.42;;;;;;;5.43;75.77;101970.81;5073980;28;20027;-59
2022/05/02 02:40:14;;;;;;;30.60;20.35;;;;;;;5.39;76.40;101975.94;5073983;28;20482;-59
2022/05/02 02:42:39;;;;;;;31.60;20.92;;;;;;;5.33;76.11;101968.69;5073967;28;20029;-59
2022/05/02 02:45:05;;;;;;;32.38;20.98;;;;;;;5.33;77.17;101965.13;5073899;28;20025;-59
2022/05/02 02:47:30;;;;;;;32.55;21.15;;;;;;;5.28;77.39;101966.69;5074017;28;20039;-59
2022/05/02 02:49:56;;;;;;;33.95;21.90;;;;;;;5.26;77.55;101952.34;5073813;28;20028;-59
2022/05/02 02:52:21;;;;;;;32.38;21.27;;;;;;;5.28;77.64;101957.63;5073906;28;20029;-59
2022/05/02 02:54:46;;;;;;;30.83;20.77;;;;;;;5.27;77.57;101954.03;5073709;28;20040;-59
2022/05/02 02:57:12;;;;;;;31.00;20.35;;;;;;;5.31;77.98;101955.22;5073769;28;20471;-59
2022/05/02 02:59:37;;;;;;;31.35;20.58;;;;;;;5.31;77.61;101957.13;5073799;28;20068;-59
2022/05/02 03:02:05;;;;;;;30.77;20.40;;;;;;;5.21;78.29;101949.53;5073595;28;20028;-58
2022/05/02 03:07:14;;;;;;;31.73;20.70;;;;;;;5.15;77.54;101943.09;5073684;28;20553;-59
2022/05/02 03:09:39;;;;;;;32.28;22.20;;;;;;;5.12;78.38;101943.56;5073512;28;20028;-59
2022/05/02 03:12:05;;;;;;;32.00;20.75;;;;;;;5.10;77.49;101947.63;5073524;28;20043;-59
2022/05/02 03:14:30;;;;;;;32.22;22.02;;;;;;;5.06;78.67;101954.66;5073569;28;20507;-59
2022/05/02 03:16:56;;;;;;;33.85;22.02;;;;;;;5.00;78.81;101949.09;5073641;28;20517;-59
2022/05/02 03:19:21;;;;;;;31.38;20.85;;;;;;;5.04;79.39;101943.94;5073275;28;20028;-59
2022/05/02 03:21:46;;;;;;;33.70;21.70;;;;;;;5.03;78.64;101945.03;5073328;28;20016;-59
2022/05/02 03:24:11;;;;;;;34.40;21.50;;;;;;;5.06;79.16;101951.94;5073324;28;20033;-58
2022/05/02 03:26:37;;;;;;;33.10;21.73;;;;;;;5.05;78.95;101945.63;5073129;28;20028;-58
2022/05/02 03:29:02;;;;;;;32.72;22.60;;;;;;;5.00;79.98;101942.78;5073253;28;20077;-58
2022/05/02 03:31:28;;;;;;;32.92;21.77;;;;;;;5.01;80.27;101941.69;5072556;28;20017;-58
2022/05/02 03:33:53;;;;;;;34.50;23.00;;;;;;;4.96;80.28;101941.59;5072841;28;20024;-58
2022/05/02 03:36:18;;;;;;;35.03;23.90;;;;;;;4.89;80.84;101940.88;5073075;28;20379;-58
2022/05/02 03:38:44;;;;;;;34.70;22.55;;;;;;;4.84;80.69;101941.63;5073321;28;20024;-58
2022/05/02 03:41:09;;;;;;;32.83;21.90;;;;;;;4.84;80.88;101938.88;5072862;28;20024;-58
2022/05/02 03:43:35;;;;;;;34.38;22.45;;;;;;;4.83;80.27;101940.75;5073031;28;20028;-58
2022/05/02 03:46:01;;;;;;;33.88;21.70;;;;;;;4.77;81.62;101935.44;5072911;28;20021;-58
2022/05/02 03:48:26;;;;;;;33.50;23.25;;;;;;;4.67;80.68;101928.66;5072838;28;20032;-58
2022/05/02 03:50:52;;;;;;;34.63;22.73;;;;;;;4.67;81.98;101939.59;5072945;28;20089;-59
2022/05/02 03:53:18;;;;;;;35.03;23.08;;;;;;;4.64;81.40;101941.97;5072873;28;20024;-58
2022/05/02 03:55:45;;;;;;;33.53;22.60;;;;;;;4.60;81.97;101944.34;5072981;28;20048;-58
2022/05/02 03:58:11;;;;;;;36.08;22.65;;;;;;;4.58;82.17;101945.69;5072757;28;20131;-58
2022/05/02 04:00:36;;;;;;;33.70;22.52;;;;;;;4.56;81.90;101950.56;5072449;28;20020;-58
2022/05/02 04:03:01;;;;;;;33.72;22.20;;;;;;;4.51;82.11;101946.63;5072082;28;20514;-58
2022/05/02 04:05:27;;;;;;;34.90;23.05;;;;;;;4.56;82.39;101951.41;5072219;28;20025;-58
2022/05/02 04:07:52;;;;;;;34.65;23.08;;;;;;;4.56;82.21;101942.34;5070937;28;20027;-58
2022/05/02 04:10:18;;;;;;;33.83;23.80;;;;;;;4.51;82.48;101949.38;5072146;28;20028;-58
2022/05/02 04:12:43;;;;;;;34.67;23.80;;;;;;;4.49;83.02;101948.78;5072440;28;20124;-58
2022/05/02 04:15:09;;;;;;;35.53;22.40;;;;;;;4.48;83.06;101954.50;5072239;28;20028;-59
2022/05/02 04:17:35;;;;;;;34.20;23.70;;;;;;;4.47;83.04;101947.34;5072214;28;20024;-58
2022/05/02 04:20:01;;;;;;;31.85;22.58;;;;;;;4.47;83.36;101961.06;5072016;28;20020;-58
2022/05/02 04:22:26;;;;;;;35.30;23.45;;;;;;;4.55;82.92;101947.00;5072178;28;20028;-58
2022/05/02 04:24:51;;;;;;;37.65;23.05;;;;;;;4.57;82.93;101947.59;5072387;28;20028;-58
2022/05/02 04:27:16;;;;;;;35.65;22.80;;;;;;;4.57;83.01;101953.06;5072190;28;20135;-58
2022/05/02 04:29:41;;;;;;;36.78;23.45;;;;;;;4.60;83.74;101946.28;5072002;28;20095;-59
2022/05/02 04:32:07;;;;;;;35.38;23.25;;;;;;;4.62;83.04;101942.22;5072044;28;20017;-57
2022/05/02 04:34:32;;;;;;;35.05;23.08;;;;;;;4.67;82.91;101947.84;5072133;28;20040;-58
2022/05/02 04:36:58;;;;;;;36.58;22.42;;;;;;;4.75;82.92;101943.06;5072218;28;20115;-58
2022/05/02 04:39:23;;;;;;;33.88;22.23;;;;;;;4.74;83.52;101947.69;5072050;28;20024;-59
2022/05/02 04:41:48;;;;;;;36.03;23.17;;;;;;;4.79;82.98;101944.22;5071937;28;20082;-59
2022/05/02 04:44:13;;;;;;;34.75;22.02;;;;;;;4.84;82.96;101936.94;5073173;28;20467;-59
2022/05/02 04:46:39;;;;;;;34.55;22.83;;;;;;;4.90;83.25;101940.63;5075829;28;20174;-59
2022/05/02 04:49:04;;;;;;;36.10;23.33;;;;;;;4.92;83.21;101934.91;5075763;28;20040;-59
2022/05/02 04:51:29;;;;;;;35.55;23.90;;;;;;;4.92;82.23;101935.75;5075701;28;20081;-59
2022/05/02 04:53:54;;;;;;;34.53;23.27;;;;;;;4.98;82.55;101939.44;5075642;28;20032;-58
2022/05/02 04:56:20;;;;;;;36.60;23.13;;;;;;;5.03;82.57;101939.53;5074246;28;20099;-60
2022/05/02 04:58:45;;;;;;;32.60;22.80;;;;;;;5.06;83.26;101940.97;5076150;28;20375;-58
2022/05/02 05:01:11;;;;;;;35.05;23.83;;;;;;;5.09;83.09;101937.75;5075342;28;20037;-58
2022/05/02 05:03:36;;;;;;;33.90;23.25;;;;;;;5.13;83.35;101947.97;5075430;28;20025;-57
2022/05/02 05:06:02;;;;;;;37.03;23.73;;;;;;;5.23;83.03;101952.00;5075566;28;20036;-58
2022/05/02 05:08:27;;;;;;;35.65;24.08;;;;;;;5.31;82.76;101951.63;5075483;28;20368;-58
2022/05/02 05:11:12;;;;;;;34.10;23.00;;;;;;;5.41;82.82;101956.50;5075295;28;20067;-59
2022/05/02 05:17:14;;;;;;;34.33;23.20;;;;;;;5.69;81.80;101941.13;5075350;28;20099;-59
2022/05/02 05:19:54;;;;;;;34.00;23.50;;;;;;;5.85;81.94;101947.72;5075124;28;20031;-58
2022/05/02 05:22:34;;;;;;;34.10;23.08;;;;;;;5.97;81.39;101948.47;5075076;28;20062;-59
2022/05/02 05:25:13;;;;;;;33.00;21.98;;;;;;;6.11;80.44;101953.69;5075372;28;20039;-59
2022/05/02 05:27:45;;;;;;;35.85;24.02;;;;;;;6.21;80.51;101951.94;5075346;28;20048;-59
2022/05/02 05:30:10;;;;;;;33.50;23.02;;;;;;;6.29;80.21;101952.59;5075099;28;20036;-59
2022/05/02 05:33:03;;;;;;;33.72;23.77;;;;;;;6.33;79.90;101956.53;5075013;28;20036;-58
2022/05/02 05:35:49;;;;;;;37.15;24.60;;;;;;;6.35;80.41;101943.38;5075075;28;20056;-59
2022/05/02 05:38:25;;;;;;;34.22;23.02;;;;;;;6.46;79.70;101947.94;5075322;28;20483;-59
2022/05/02 05:41:06;;;;;;;32.10;21.98;;;;;;;6.49;79.43;101938.34;5074788;28;20360;-57
2022/05/02 05:44:07;;;;;;;33.72;22.85;;;;;;;6.56;78.98;101939.00;5075169;28;20036;-59
2022/05/02 05:46:45;;;;;;;32.97;22.45;;;;;;;6.66;78.72;101950.16;5074922;28;20111;-58
2022/05/02 05:49:31;;;;;;;33.53;23.05;;;;;;;6.76;78.59;101951.41;5074719;28;20059;-58
2022/05/02 05:52:11;;;;;;;32.75;22.35;;;;;;;6.85;78.18;101949.88;5075004;28;20111;-58
2022/05/02 05:54:58;;;;;;;33.58;22.40;;;;;;;6.91;78.21;101959.84;5074325;28;20044;-58
2022/05/02 05:57:26;;;;;;;35.75;24.23;;;;;;;6.95;77.58;101952.78;5074533;28;20024;-58
2022/05/02 06:00:11;;;;;;;33.95;23.25;;;;;;;7.01;78.02;101960.00;5074338;28;20111;-58
2022/05/02 06:02:59;;;;;;;33.03;22.00;;;;;;;7.10;77.48;101956.78;5074545;28;20078;-58
2022/05/02 06:05:24;;;;;;;32.92;23.58;;;;;;;7.15;77.49;101954.13;5074524;28;20036;-59
2022/05/02 06:07:51;;;;;;;32.55;23.17;;;;;;;7.18;77.10;101950.84;5074273;28;20027;-58
2022/05/02 06:10:17;;;;;;;32.08;22.92;;;;;;;7.31;76.88;101957.91;5074178;28;20032;-58
2022/05/02 06:12:44;;;;;;;34.92;23.95;;;;;;;7.41;76.51;101968.19;5074419;28;20028;-58
2022/05/02 06:20:43;;;;;;;33.95;23.40;;;;;;;7.71;75.55;101964.94;5074232;28;20039;-58
2022/05/02 06:23:11;;;;;;;32.85;22.77;;;;;;;7.72;75.08;101949.28;5073817;28;20039;-58
2022/05/02 06:25:37;;;;;;;33.30;22.48;;;;;;;7.88;74.73;101966.78;5074115;28;20027;-59
2022/05/02 06:28:04;;;;;;;32.15;23.08;;;;;;;7.95;74.66;101968.22;5074075;28;20520;-58
2022/05/02 06:30:30;;;;;;;31.60;23.42;;;;;;;8.05;74.52;101963.91;5073942;28;20032;-59
2022/05/02 06:33:00;;;;;;;33.17;22.60;;;;;;;8.07;74.38;101953.44;5073797;28;20029;-59
2022/05/02 06:35:31;;;;;;;32.97;23.05;;;;;;;8.24;74.61;101947.81;5073761;28;20543;-58
2022/05/02 06:38:23;;;;;;;32.15;22.27;;;;;;;8.36;73.37;101961.41;5074091;28;20055;-59
2022/05/02 06:41:12;;;;;;;31.00;22.42;;;;;;;8.48;73.35;101959.34;5073727;28;20194;-58
2022/05/02 06:43:52;;;;;;;31.48;21.65;;;;;;;8.64;72.69;101967.72;5073499;28;20032;-57
2022/05/02 06:46:33;;;;;;;31.00;21.92;;;;;;;8.82;72.02;101971.97;5073728;28;20509;-59
2022/05/02 06:49:04;;;;;;;31.35;21.10;;;;;;;8.91;71.47;101964.84;5073676;28;20029;-59
2022/05/02 06:51:35;;;;;;;30.15;21.40;;;;;;;9.05;70.95;101954.97;5073596;28;20039;-59
2022/05/02 06:54:20;;;;;;;29.92;22.17;;;;;;;9.23;70.96;101965.84;5073238;28;20055;-59
2022/05/02 06:56:56;;;;;;;29.73;21.02;;;;;;;9.39;69.72;101961.22;5073644;28;20036;-58
2022/05/02 06:59:33;;;;;;;30.08;21.35;;;;;;;9.53;68.85;101962.34;5073134;28;20185;-59
2022/05/02 07:02:12;;;;;;;29.83;20.80;;;;;;;9.63;68.62;101947.75;5073384;28;20067;-58
2022/05/02 07:04:50;;;;;;;27.13;18.88;;;;;;;9.79;66.77;101954.97;5073305;28;20033;-58
2022/05/02 07:07:27;;;;;;;28.60;19.48;;;;;;;9.92;67.09;101955.53;5072586;28;20048;-61
2022/05/02 07:10:02;;;;;;;27.95;19.42;;;;;;;10.02;66.24;101955.53;5073058;28;20031;-59
2022/05/02 07:12:29;;;;;;;28.92;20.02;;;;;;;10.13;65.59;101954.44;5073044;28;20467;-59
2022/05/02 07:15:16;;;;;;;24.88;17.38;;;;;;;10.28;64.35;101959.13;5073051;28;20021;-59
2022/05/02 07:17:42;;;;;;;27.75;17.90;;;;;;;10.43;64.43;101954.75;5073146;28;20111;-59
2022/05/02 07:20:13;;;;;;;28.60;18.20;;;;;;;10.49;61.82;101950.84;5073115;28;20021;-59
2022/05/02 07:22:43;;;;;;;26.38;16.85;;;;;;;10.54;62.03;101945.31;5073176;28;20039;-58
2022/05/02 07:25:13;;;;;;;25.73;17.30;;;;;;;10.63;62.51;101945.59;5072825;28;20037;-58
2022/05/02 07:28:23;;;;;;;27.98;18.73;;;;;;;10.78;62.23;101950.25;5071541;28;20060;-58
2022/05/02 07:30:49;;;;;;;25.95;17.83;;;;;;;10.92;61.74;101956.03;5072884;28;20119;-59
2022/05/02 07:33:14;;;;;;;26.30;17.30;;;;;;;11.04;61.62;101952.94;5072924;28;20431;-58
2022/05/02 07:35:40;;;;;;;28.05;18.42;;;;;;;11.11;60.26;101947.94;5072967;28;20028;-58
2022/05/02 07:38:07;;;;;;;26.48;17.52;;;;;;;11.29;60.31;101948.44;5072914;28;20044;-59
2022/05/02 07:40:33;;;;;;;27.17;16.55;;;;;;;11.36;58.86;101947.00;5072996;28;20390;-58
2022/05/02 07:43:00;;;;;;;26.42;18.33;;;;;;;11.41;58.44;101959.19;5072641;28;20028;-58
2022/05/02 07:45:30;;;;;;;25.17;16.63;;;;;;;11.47;58.65;101950.56;5072644;28;20029;-58
2022/05/02 07:48:03;;;;;;;26.10;17.83;;;;;;;11.53;58.56;101949.41;5072540;28;20033;-58
2022/05/02 07:50:29;;;;;;;24.92;16.90;;;;;;;11.58;58.41;101947.69;5072856;28;20131;-58
2022/05/02 07:52:57;;;;;;;27.13;18.52;;;;;;;11.66;57.77;101956.25;5072476;28;20037;-58
2022/05/02 07:55:23;;;;;;;27.13;18.58;;;;;;;11.72;57.54;101957.06;5072370;28;20064;-58
2022/05/02 07:57:48;;;;;;;27.83;18.20;;;;;;;11.79;57.30;101948.44;5072325;28;20040;-59
2022/05/02 08:00:14;;;;;;;25.98;17.98;;;;;;;11.95;57.59;101958.28;5072503;28;20044;-58
2022/05/02 08:02:41;;;;;;;26.00;18.13;;;;;;;12.03;56.37;101954.13;5070979;28;20526;-59
2022/05/02 08:05:07;;;;;;;24.67;17.25;;;;;;;12.12;56.25;101955.16;5073151;28;20021;-59
2022/05/02 08:07:35;;;;;;;26.88;18.55;;;;;;;12.07;54.43;101943.28;5072880;28;20045;-59
2022/05/02 08:10:38;;;;;;;26.90;17.02;;;;;;;12.22;55.65;101953.41;5072375;28;20155;-58
2022/05/02 08:13:14;;;;;;;25.40;17.33;;;;;;;12.29;55.02;101945.56;5072127;28;20032;-58
2022/05/02 08:16:03;;;;;;;25.73;16.98;;;;;;;12.41;55.22;101951.59;5072388;28;20028;-58
2022/05/02 08:19:02;;;;;;;23.98;16.58;;;;;;;12.52;54.78;101946.75;5074272;28;20037;-57
2022/05/02 08:21:43;;;;;;;24.63;17.00;;;;;;;12.64;52.06;101949.13;5076125;28;20017;-58
2022/05/02 08:27:52;;;;;;;25.90;17.42;;;;;;;12.67;51.49;101936.59;5076565;28;20136;-59
2022/05/02 08:30:24;;;;;;;24.90;16.63;;;;;;;12.82;51.71;101949.50;5076343;28;20074;-59
2022/05/02 08:33:07;;;;;;;26.40;16.70;;;;;;;12.88;51.72;101946.38;5076402;28;20490;-58
2022/05/02 08:35:45;;;;;;;25.13;16.38;;;;;;;13.00;50.69;101945.13;5076128;28;20024;-58
2022/05/02 08:38:49;;;;;;;25.27;15.98;;;;;;;13.07;50.30;101951.16;5076263;28;20032;-58
2022/05/02 08:41:30;;;;;;;26.40;16.27;;;;;;;13.13;50.21;101943.59;5075920;28;20060;-58
2022/05/02 08:44:29;;;;;;;25.17;15.38;;;;;;;13.18;50.67;101943.50;5076154;28;20128;-59
2022/05/02 08:47:32;;;;;;;23.95;15.23;;;;;;;13.24;48.66;101947.91;5076073;28;20039;-58
2022/05/02 08:50:35;;;;;;;25.27;15.00;;;;;;;13.35;49.55;101941.09;5075993;28;20029;-58
2022/05/02 08:53:43;;;;;;;24.08;15.45;;;;;;;13.51;48.08;101932.56;5064498;28;20033;-58
2022/05/02 08:56:39;;;;;;;23.20;14.65;;;;;;;13.70;48.61;101930.63;5075934;28;20126;-59
2022/05/02 08:59:23;;;;;;;23.83;14.50;;;;;;;13.92;48.38;101933.91;5075940;28;20036;-58
2022/05/02 09:01:58;;;;;;;23.02;14.85;;;;;;;14.00;46.59;101936.84;5075649;28;20033;-58
2022/05/02 09:05:05;;;;;;;23.85;14.43;;;;;;;14.00;46.50;101938.78;5075739;28;20055;-58
2022/05/02 09:07:51;;;;;;;23.23;14.63;;;;;;;13.99;45.61;101934.34;5075652;28;20043;-58
2022/05/02 09:10:33;;;;;;;24.75;15.88;;;;;;;14.14;46.95;101938.81;5075617;28;20028;-58
2022/05/02 09:13:21;;;;;;;22.50;13.93;;;;;;;14.10;45.02;101929.44;5075637;28;20472;-58
2022/05/02 09:15:57;;;;;;;22.40;13.95;;;;;;;13.99;44.45;101935.19;5075431;28;20103;-58
2022/05/02 09:18:56;;;;;;;23.33;13.35;;;;;;;14.04;43.73;101931.50;5075435;28;20456;-58
2022/05/02 09:21:40;;;;;;;22.10;12.88;;;;;;;14.03;44.97;101927.06;5075377;28;20040;-58
2022/05/02 09:24:34;;;;;;;23.02;14.25;;;;;;;13.96;45.36;101930.22;5075172;28;20031;-59
2022/05/02 09:27:31;;;;;;;23.13;14.40;;;;;;;14.01;45.89;101926.53;5075622;28;20029;-58
2022/05/02 09:30:15;;;;;;;23.05;13.93;;;;;;;14.12;44.16;101918.84;5074408;28;20043;-58
2022/05/02 09:33:05;;;;;;;22.05;13.10;;;;;;;14.37;44.44;101922.31;5075172;28;20115;-59
2022/05/02 09:35:42;;;;;;;23.65;14.32;;;;;;;14.37;43.48;101913.97;5075340;28;20043;-59
2022/05/02 09:38:26;;;;;;;21.75;13.65;;;;;;;14.43;43.92;101907.16;5075225;28;20039;-59
2022/05/02 09:41:05;;;;;;;22.38;14.30;;;;;;;14.48;43.20;101916.25;5075077;28;20028;-58
2022/05/02 09:49:54;;;;;;;20.88;12.93;;;;;;;15.07;43.54;101904.53;5075556;28;20038;-59
2022/05/02 09:52:33;;;;;;;20.95;12.98;;;;;;;15.06;42.47;101911.25;5074893;28;20455;-59
2022/05/02 09:57:59;;;;;;;21.00;12.93;;;;;;;14.59;42.42;101894.63;5075064;28;20133;-59
2022/05/02 10:03:32;;;;;;;22.77;12.43;;;;;;;14.94;42.22;101895.06;5074959;28;20051;-59
2022/05/02 10:06:04;;;;;;;21.77;12.82;;;;;;;15.07;41.90;101893.41;5074943;28;20119;-59
2022/05/02 10:08:37;;;;;;;21.48;12.90;;;;;;;15.27;41.35;101906.06;5075030;28;20133;-59
2022/05/02 10:11:12;;;;;;;21.80;13.23;;;;;;;15.36;40.97;101885.78;5074644;28;20464;-59
2022/05/02 10:14:14;;;;;;;21.77;13.18;;;;;;;15.48;41.52;101896.44;5074297;28;20075;-58
2022/05/02 10:16:51;;;;;;;24.92;14.20;;;;;;;15.55;42.05;101896.81;5074461;28;20390;-59
2022/05/02 10:19:19;;;;;;;22.33;13.88;;;;;;;15.63;41.10;101901.63;5074239;28;20036;-59
2022/05/02 10:22:09;;;;;;;23.70;14.65;;;;;;;15.58;40.52;101887.81;5074033;28;20035;-58
2022/05/02 10:25:02;;;;;;;22.20;13.90;;;;;;;15.81;41.28;101890.63;5074230;28;20032;-59
2022/05/02 10:27:34;;;;;;;23.25;13.82;;;;;;;15.97;40.37;101891.09;5074402;28;20470;-59
2022/05/02 10:30:12;;;;;;;22.23;12.95;;;;;;;15.79;40.31;101887.31;5074143;28;20079;-57
2022/05/02 10:32:47;;;;;;;23.35;13.50;;;;;;;15.79;40.06;101882.56;5073539;28;20483;-58
2022/05/02 10:35:17;;;;;;;20.65;13.10;;;;;;;15.77;40.01;101876.47;5074209;28;20115;-58
2022/05/02 10:37:56;;;;;;;22.52;14.15;;;;;;;15.75;39.82;101874.00;5073979;28;20039;-59
2022/05/02 10:40:41;;;;;;;22.92;14.60;;;;;;;15.94;39.56;101880.56;5073918;28;20074;-58
2022/05/02 10:43:11;;;;;;;23.25;14.50;;;;;;;15.83;39.70;101872.41;5073617;28;20064;-58
2022/05/02 10:45:38;;;;;;;22.40;14.45;;;;;;;15.88;39.20;101882.66;5073621;28;20043;-59
2022/05/02 10:48:13;;;;;;;22.80;14.20;;;;;;;15.88;39.56;101880.69;5073517;28;20021;-59
2022/05/02 10:50:38;;;;;;;22.70;13.70;;;;;;;16.05;39.65;101868.00;5073717;28;20471;-58
2022/05/02 10:53:23;;;;;;;22.10;13.63;;;;;;;16.17;39.51;101862.66;5073579;28;20048;-59
2022/05/02 10:56:17;;;;;;;24.15;13.95;;;;;;;16.38;38.97;101865.72;5073944;28;20093;-58
2022/05/02 10:58:44;;;;;;;22.52;14.90;;;;;;;16.46;39.04;101864.13;5065398;28;20055;-59
2022/05/02 11:01:40;;;;;;;24.15;14.98;;;;;;;16.27;39.34;101853.19;5073373;28;20074;-59
2022/05/02 11:04:28;;;;;;;22.98;13.95;;;;;;;16.18;39.66;101858.72;5073209;28;20420;-59
2022/05/02 11:07:17;;;;;;;23.13;14.55;;;;;;;16.16;40.46;101855.44;5073593;28;20028;-59
2022/05/02 11:10:09;;;;;;;23.98;14.85;;;;;;;16.29;38.86;101864.84;5073255;28;20028;-59
2022/05/02 11:12:49;;;;;;;22.50;14.52;;;;;;;16.36;38.86;101848.47;5073271;28;20443;-59
2022/05/02 11:15:21;;;;;;;22.58;15.07;;;;;;;16.37;38.70;101850.09;5072998;28;20387;-59
2022/05/02 11:17:56;;;;;;;22.33;14.30;;;;;;;16.44;38.49;101859.97;5073058;28;20031;-59
2022/05/02 11:20:49;;;;;;;24.25;15.15;;;;;;;16.57;39.17;101844.28;5072873;28;20031;-60
2022/05/02 11:23:24;;;;;;;23.63;15.43;;;;;;;16.37;38.49;101840.91;5073171;28;20028;-59
2022/05/02 11:26:09;;;;;;;25.42;15.38;;;;;;;16.37;38.58;101838.94;5072935;28;20033;-59
2022/05/02 11:29:23;;;;;;;24.40;15.75;;;;;;;16.51;38.94;101847.22;5073069;28;20146;-59
2022/05/02 11:32:04;;;;;;;26.30;15.98;;;;;;;16.49;38.95;101837.50;5068197;28;20048;-59
2022/05/02 11:34:50;;;;;;;24.45;15.80;;;;;;;16.71;38.95;101833.00;5073059;28;20024;-59
2022/05/02 11:37:37;;;;;;;23.20;15.32;;;;;;;16.86;39.03;101832.53;5072842;28;20039;-59
2022/05/02 11:40:09;;;;;;;23.98;16.08;;;;;;;16.72;38.46;101829.88;5072810;28;20029;-59
2022/05/02 11:42:43;;;;;;;22.90;15.68;;;;;;;16.78;38.15;101827.75;5072956;28;20338;-59
2022/05/02 11:45:17;;;;;;;24.63;16.17;;;;;;;16.73;37.50;101822.28;5072777;28;20060;-59
2022/05/02 11:47:54;;;;;;;24.13;15.63;;;;;;;16.84;38.10;101832.88;5072551;28;20024;-59
2022/05/02 11:50:24;;;;;;;24.23;15.70;;;;;;;16.86;37.33;101820.53;5073138;28;20065;-59
2022/05/02 11:52:55;;;;;;;24.10;16.17;;;;;;;16.72;37.48;101820.69;5072124;28;20078;-59
2022/05/02 11:55:34;;;;;;;24.00;15.10;;;;;;;16.67;37.95;101816.88;5072442;28;20399;-59
2022/05/02 11:58:08;;;;;;;25.10;16.83;;;;;;;16.42;38.47;101823.19;5072613;28;20498;-59
2022/05/02 12:00:36;;;;;;;25.05;16.58;;;;;;;16.42;38.94;101820.41;5072704;28;20093;-59
2022/05/02 12:03:11;;;;;;;25.48;16.90;;;;;;;16.57;38.29;101819.97;5072804;28;20189;-58
2022/05/02 12:05:40;;;;;;;24.33;16.05;;;;;;;16.79;38.12;101818.22;5072703;28;20399;-59
2022/05/02 12:08:08;;;;;;;25.55;15.80;;;;;;;17.05;37.52;101811.88;5072562;28;20021;-59